Marambaia, Brazil
Current Conditions -  °F | °C
As of 9:00 AM on Wednesday 26 Nov 2014 (Local Time) from SBMK Reporting Station
Light Rain Light Rain  
Wind Chill: 72°   Ceiling: 7000
Heat Index: 72°   Visibility: 5mi
Dew Point: 66°   Wind: 5mph
Humidity: 83%   Direction: 300°WNW
Pressure: 30"   Gusts: NA
Location:  17.18°S, 41.58°W
Report Text: SBMK 261100Z 30004KT 8000 -RA FEW012 SCT040 BKN070 22/19 Q1016
Loading
Personal Weather Stations






























Interactive Weather Map New forecast layout! Learn more

10-Day Weather Forecast

Advertisements
Track Severe Weather on mobile